createdAt,value
2018-09-17T00:04:09.615Z,3.63
2018-09-17T00:08:53.568Z,4.40
2018-09-17T00:13:37.702Z,2.87
2018-09-17T00:18:21.643Z,2.67
2018-09-17T00:23:05.636Z,3.73
2018-09-17T00:27:49.585Z,3.47
2018-09-17T00:32:33.425Z,3.87
2018-09-17T00:37:17.226Z,3.33
2018-09-17T00:42:01.011Z,3.37
2018-09-17T00:46:44.818Z,3.20
2018-09-17T00:51:28.787Z,3.10
2018-09-17T00:56:12.608Z,3.87
2018-09-17T01:00:56.727Z,2.97
2018-09-17T01:05:40.474Z,3.10
2018-09-17T01:10:24.339Z,3.20
2018-09-17T01:15:08.368Z,2.80
2018-09-17T01:19:52.317Z,3.10
2018-09-17T01:24:36.095Z,3.10
2018-09-17T01:29:20.026Z,3.13
2018-09-17T01:34:03.915Z,4.47
2018-09-17T01:38:47.813Z,5.03
2018-09-17T01:43:31.641Z,3.20
2018-09-17T01:48:15.449Z,4.73
2018-09-17T01:52:59.108Z,4.20
2018-09-17T01:57:42.913Z,3.07
2018-09-17T02:02:26.731Z,4.13
2018-09-17T02:07:10.537Z,3.37
2018-09-17T02:11:54.511Z,3.90
2018-09-17T02:16:38.211Z,3.63
2018-09-17T02:21:22.116Z,4.20
2018-09-17T02:26:06.038Z,4.93
2018-09-17T02:30:49.865Z,3.27
2018-09-17T02:35:34.420Z,5.73
2018-09-17T02:40:18.786Z,3.33
2018-09-17T02:45:02.477Z,3.13
2018-09-17T02:49:46.247Z,4.47
2018-09-17T02:54:30.032Z,3.40
2018-09-17T02:59:13.896Z,3.63
2018-09-17T03:03:57.694Z,5.13
2018-09-17T03:08:41.517Z,4.03
2018-09-17T03:13:25.340Z,4.07
2018-09-17T03:18:09.184Z,4.43
2018-09-17T03:22:52.906Z,3.87
2018-09-17T03:27:36.721Z,4.90
2018-09-17T03:32:20.590Z,4.67
2018-09-17T03:37:04.489Z,6.10
2018-09-17T03:41:48.435Z,4.70
2018-09-17T03:46:32.346Z,4.30
2018-09-17T03:51:16.538Z,4.57
2018-09-17T03:56:00.457Z,4.23
2018-09-17T04:00:44.449Z,5.27
2018-09-17T04:05:28.310Z,4.17
2018-09-17T04:10:12.163Z,4.23
2018-09-17T04:14:56.028Z,4.53
2018-09-17T04:19:39.827Z,4.73
2018-09-17T04:24:23.534Z,4.50
2018-09-17T04:29:07.509Z,4.13
2018-09-17T04:33:51.326Z,4.90
2018-09-17T04:38:35.137Z,5.13
2018-09-17T04:43:20.853Z,4.80
2018-09-17T04:48:04.760Z,5.43
2018-09-17T04:52:48.633Z,4.93
2018-09-17T04:57:32.785Z,5.37
2018-09-17T05:02:16.657Z,5.03
2018-09-17T05:07:00.388Z,7.60
2018-09-17T05:11:44.216Z,7.03
2018-09-17T05:16:28.052Z,6.53
2018-09-17T05:21:11.735Z,5.43
2018-09-17T05:25:55.490Z,6.07
2018-09-17T05:30:39.430Z,6.57
2018-09-17T05:35:23.302Z,5.30
2018-09-17T05:40:07.091Z,4.53
2018-09-17T05:44:50.924Z,5.17
2018-09-17T05:49:34.795Z,4.77
2018-09-17T05:54:18.562Z,5.00
2018-09-17T05:59:02.326Z,5.33
2018-09-17T06:03:46.185Z,4.60
2018-09-17T06:08:29.907Z,4.53
2018-09-17T06:13:13.800Z,6.03
2018-09-17T06:17:57.759Z,5.80
2018-09-17T06:22:41.643Z,3.90
2018-09-17T06:27:25.781Z,5.80
2018-09-17T06:32:09.722Z,5.47
2018-09-17T06:36:53.564Z,7.70
2018-09-17T06:41:37.480Z,4.23
2018-09-17T06:46:21.374Z,7.93
2018-09-17T06:51:05.142Z,6.17
2018-09-17T06:55:49.202Z,6.20
2018-09-17T07:00:33.010Z,8.73
2018-09-17T07:05:16.742Z,5.83
2018-09-17T07:10:07.957Z,5.10
2018-09-17T07:14:51.808Z,3.73
2018-09-17T07:19:35.651Z,9.10
2018-09-17T07:24:20.236Z,6.03
2018-09-17T07:29:04.134Z,4.13
2018-09-17T07:33:47.964Z,7.73
2018-09-17T07:38:31.804Z,5.07
2018-09-17T07:43:15.585Z,7.73
2018-09-17T07:48:00.048Z,6.00
2018-09-17T07:52:43.878Z,5.23
2018-09-17T07:57:27.719Z,7.23
2018-09-17T08:02:11.622Z,6.23
2018-09-17T08:06:55.576Z,5.33
2018-09-17T08:11:39.843Z,3.90
2018-09-17T08:16:23.613Z,3.43
2018-09-17T08:21:07.413Z,5.17
2018-09-17T08:25:51.214Z,4.80
2018-09-17T08:30:35.063Z,3.73
2018-09-17T08:35:18.807Z,3.07
2018-09-17T08:40:02.511Z,3.57
2018-09-17T08:44:46.380Z,2.47
2018-09-17T08:49:30.292Z,4.23
2018-09-17T08:54:14.292Z,5.37
2018-09-17T08:58:59.682Z,2.57
2018-09-17T09:03:48.783Z,2.67
2018-09-17T09:08:32.550Z,2.50
2018-09-17T09:13:24.389Z,3.20
2018-09-17T09:18:09.026Z,3.27
2018-09-17T09:22:52.827Z,3.20
2018-09-17T09:27:36.656Z,2.20
2018-09-17T09:32:20.611Z,2.33
2018-09-17T09:37:06.815Z,2.73
2018-09-17T09:41:50.903Z,3.33
2018-09-17T09:46:34.771Z,2.27
2018-09-17T09:51:18.509Z,2.57
2018-09-17T09:56:02.207Z,2.80
2018-09-17T10:00:51.502Z,2.83
2018-09-17T10:05:35.134Z,3.87
2018-09-17T10:12:28.475Z,3.30
2018-09-17T10:17:17.500Z,3.30
2018-09-17T10:22:01.391Z,2.30
2018-09-17T10:26:45.171Z,3.27
2018-09-17T10:31:29.161Z,2.50
2018-09-17T10:36:12.951Z,2.40
2018-09-17T10:40:56.794Z,3.67
2018-09-17T10:45:40.510Z,2.55
2018-09-17T10:50:24.267Z,2.42
2018-09-17T10:55:08.218Z,2.00
2018-09-17T10:59:52.608Z,2.42
2018-09-17T11:04:36.753Z,2.22
2018-09-17T11:09:20.656Z,4.37
2018-09-17T11:14:04.541Z,2.42
2018-09-17T11:18:48.844Z,4.67
2018-09-17T11:23:53.670Z,2.50
2018-09-17T11:28:37.678Z,3.50
2018-09-17T11:33:21.824Z,3.25
2018-09-17T11:38:05.765Z,3.08
2018-09-17T11:43:08.859Z,4.05
2018-09-17T11:47:54.695Z,2.62
2018-09-17T11:52:38.728Z,2.70
2018-09-17T11:57:34.506Z,5.37
2018-09-17T12:02:30.301Z,2.67
2018-09-17T12:07:32.231Z,2.92
2018-09-17T12:28:11.679Z,5.78
2018-09-17T12:32:57.291Z,3.40
2018-09-17T12:37:55.929Z,2.77
2018-09-17T12:42:39.771Z,2.65
2018-09-17T12:47:25.063Z,3.75
2018-09-17T12:52:09.372Z,3.50
2018-09-17T12:57:17.098Z,4.05
2018-09-17T13:02:02.644Z,3.27
2018-09-17T13:06:46.758Z,3.20
2018-09-17T13:11:31.109Z,4.22
2018-09-17T13:16:25.588Z,2.58
2018-09-17T13:21:09.410Z,2.58
2018-09-17T13:25:53.332Z,2.90
2018-09-17T13:30:37.256Z,3.45
2018-09-17T13:35:21.019Z,3.10
2018-09-17T13:40:04.886Z,3.22
2018-09-17T13:45:03.618Z,2.58
2018-09-17T13:50:19.783Z,3.05
2018-09-17T14:10:27.061Z,2.72
2018-09-17T14:15:10.904Z,2.98
2018-09-17T14:19:54.822Z,3.40
2018-09-17T14:24:38.534Z,3.80
2018-09-17T14:29:22.368Z,5.15
2018-09-17T14:34:06.412Z,4.17
2018-09-17T14:38:50.230Z,3.65
2018-09-17T14:43:34.136Z,4.05
2018-09-17T14:48:17.903Z,2.60
2018-09-17T14:53:01.700Z,5.30
2018-09-17T14:57:45.623Z,2.87
2018-09-17T15:02:29.354Z,2.90
2018-09-17T15:07:13.359Z,2.75
2018-09-17T15:11:57.361Z,2.67
2018-09-17T15:16:41.751Z,2.75
2018-09-17T15:21:25.512Z,2.60
2018-09-17T15:26:10.398Z,8.03
2018-09-17T15:30:54.302Z,4.35
2018-09-17T15:35:38.163Z,2.70
2018-09-17T15:40:26.797Z,3.80
2018-09-17T15:45:12.472Z,4.80
2018-09-17T15:49:56.600Z,3.58
2018-09-17T15:54:40.409Z,3.67
2018-09-17T15:59:24.259Z,4.22
2018-09-17T16:04:08.134Z,2.75
2018-09-17T16:08:52.197Z,2.77
2018-09-17T16:13:44.309Z,2.50
2018-09-17T16:18:35.789Z,3.33
2018-09-17T16:23:19.530Z,4.37
2018-09-17T16:28:03.620Z,3.53
2018-09-17T16:32:47.524Z,3.10
2018-09-17T16:37:31.419Z,4.50
2018-09-17T16:42:15.184Z,2.87
2018-09-17T16:46:59.062Z,3.57
2018-09-17T16:51:42.770Z,4.37
2018-09-17T16:56:26.870Z,4.97
2018-09-17T17:01:10.650Z,2.73
2018-09-17T17:05:54.537Z,4.43
2018-09-17T17:10:39.432Z,4.80
2018-09-17T17:15:23.313Z,6.00
2018-09-17T17:20:07.326Z,5.63
2018-09-17T17:24:52.805Z,6.40
2018-09-17T17:29:36.625Z,7.53
2018-09-17T17:34:20.877Z,4.03
2018-09-17T17:39:06.878Z,5.43
2018-09-17T17:43:51.353Z,5.23
2018-09-17T17:48:35.576Z,4.37
2018-09-17T17:53:20.475Z,3.93
2018-09-17T17:58:04.604Z,6.53
2018-09-17T18:08:06.896Z,3.87
2018-09-17T18:13:00.497Z,4.37
2018-09-17T18:19:25.404Z,5.40
2018-09-17T18:24:31.008Z,5.47
2018-09-17T18:29:34.194Z,4.92
2018-09-17T18:34:19.377Z,5.50
2018-09-17T18:39:07.095Z,4.60
2018-09-17T18:43:56.244Z,6.07
2018-09-17T18:48:47.941Z,4.47
2018-09-17T18:53:35.673Z,4.33
2018-09-17T19:03:20.390Z,4.20
2018-09-17T19:13:17.061Z,4.77
2018-09-17T19:18:08.920Z,6.50
2018-09-17T19:24:08.052Z,4.10
2018-09-17T19:28:58.784Z,3.67
2018-09-17T19:33:45.983Z,4.60
2018-09-17T19:40:43.995Z,4.43
2018-09-17T19:46:04.253Z,6.80
2018-09-17T19:50:58.277Z,9.00
2018-09-17T19:55:50.212Z,6.83
2018-09-17T20:00:36.601Z,7.23
2018-09-17T20:05:26.541Z,5.43
2018-09-17T20:10:18.579Z,5.63
2018-09-17T20:15:03.466Z,6.70
2018-09-17T20:19:57.563Z,7.63
2018-09-17T20:24:42.850Z,7.13
2018-09-17T20:29:27.069Z,5.50
2018-09-17T20:34:11.264Z,5.77
2018-09-17T20:38:59.742Z,8.13
2018-09-17T20:43:44.890Z,15.30
2018-09-17T20:48:29.080Z,25.40
2018-09-17T20:53:13.636Z,22.77
2018-09-17T20:57:57.875Z,20.17
2018-09-17T21:02:43.092Z,13.60
2018-09-17T21:07:27.207Z,10.80
2018-09-17T21:12:11.684Z,8.00
2018-09-17T21:16:55.833Z,7.83
2018-09-17T21:21:40.011Z,8.73
2018-09-17T21:26:24.276Z,11.20
2018-09-17T21:31:08.581Z,13.30
2018-09-17T21:35:55.956Z,25.63
2018-09-17T21:40:43.840Z,20.93
2018-09-17T21:45:43.788Z,17.97
2018-09-17T21:50:38.872Z,10.17
2018-09-17T21:55:30.412Z,8.10
2018-09-17T22:00:24.922Z,8.30
2018-09-17T22:05:30.872Z,7.07
2018-09-17T22:10:19.550Z,5.07
2018-09-17T22:15:12.296Z,6.77
2018-09-17T22:19:57.105Z,9.17
2018-09-17T22:24:41.335Z,12.80
2018-09-17T22:29:25.543Z,18.90
2018-09-17T22:34:14.948Z,21.17
2018-09-17T22:38:59.246Z,17.93
2018-09-17T22:43:43.720Z,15.57
2018-09-17T22:48:28.346Z,12.07
2018-09-17T22:53:13.671Z,11.10
2018-09-17T22:57:58.239Z,9.07
2018-09-17T23:02:42.193Z,9.83
2018-09-17T23:07:26.164Z,8.80
2018-09-17T23:12:17.315Z,10.47
2018-09-17T23:17:02.588Z,8.97
2018-09-17T23:21:49.438Z,8.13
2018-09-17T23:26:33.576Z,8.77
2018-09-17T23:31:17.844Z,11.07
2018-09-17T23:36:02.572Z,11.30
2018-09-17T23:40:47.679Z,11.57
2018-09-17T23:45:34.503Z,8.27
2018-09-17T23:50:18.839Z,9.23
2018-09-17T23:55:02.816Z,6.93
2018-09-17T23:59:51.281Z,6.33
